createdAt,value
2022-09-10T00:01:28.999Z,20.4
2022-09-10T00:06:31.330Z,20.4
2022-09-10T00:11:33.341Z,20.4
2022-09-10T00:16:35.466Z,20.4
2022-09-10T00:21:37.523Z,20.1
2022-09-10T00:26:39.827Z,20.2
2022-09-10T00:31:42.369Z,20
2022-09-10T00:36:45.007Z,19.9
2022-09-10T00:41:46.946Z,19.9
2022-09-10T00:46:50.047Z,19.7
2022-09-10T00:51:52.048Z,19.6
2022-09-10T00:56:54.500Z,19.8
2022-09-10T01:01:56.725Z,19.8
2022-09-10T01:06:59.487Z,19.6
2022-09-10T01:12:04.443Z,19.5
2022-09-10T01:17:06.711Z,19.4
2022-09-10T01:22:08.674Z,19.3
2022-09-10T01:27:10.650Z,19.3
2022-09-10T01:32:12.787Z,19.2
2022-09-10T01:37:15.555Z,19.2
2022-09-10T01:42:17.784Z,19.2
2022-09-10T01:47:19.770Z,19.1
2022-09-10T01:52:21.759Z,19.1
2022-09-10T01:57:23.719Z,19.3
2022-09-10T02:02:25.742Z,19.5
2022-09-10T02:07:28.550Z,19.5
2022-09-10T02:12:30.538Z,19.4
2022-09-10T02:17:32.598Z,19.4
2022-09-10T02:22:35.582Z,19.1
2022-09-10T02:27:37.617Z,19.1
2022-09-10T02:32:39.742Z,19.3
2022-09-10T02:37:41.681Z,19.4
2022-09-10T02:42:43.617Z,19.4
2022-09-10T02:47:45.690Z,19.3
2022-09-10T02:52:47.638Z,19.4
2022-09-10T02:57:49.957Z,19.2
2022-09-10T03:02:52.034Z,19.2
2022-09-10T03:07:54.170Z,19.2
2022-09-10T03:12:56.157Z,19.2
2022-09-10T03:17:58.238Z,19
2022-09-10T03:23:00.256Z,18.8
2022-09-10T03:28:02.353Z,18.7
2022-09-10T03:33:04.328Z,18.7
2022-09-10T03:38:06.317Z,18.6
2022-09-10T03:43:09.409Z,18.6
2022-09-10T03:48:11.465Z,18.5
2022-09-10T03:53:13.403Z,18.5
2022-09-10T03:58:15.439Z,18.5
2022-09-10T04:03:17.382Z,18.5
2022-09-10T04:08:19.505Z,18.4
2022-09-10T04:13:21.974Z,18.4
2022-09-10T04:18:27.062Z,18.4
2022-09-10T04:23:29.201Z,18.5
2022-09-10T04:28:31.224Z,18.5
2022-09-10T04:33:34.225Z,18.5
2022-09-10T04:38:36.802Z,18.4
2022-09-10T04:43:39.018Z,18.6
2022-09-10T04:48:41.763Z,18.8
2022-09-10T04:53:43.741Z,18.7
2022-09-10T04:58:48.534Z,19.1
2022-09-10T05:03:50.923Z,19
2022-09-10T05:08:53.116Z,19
2022-09-10T05:13:55.085Z,19.1
2022-09-10T05:18:56.971Z,19.3
2022-09-10T05:23:59.025Z,19.4
2022-09-10T05:29:00.971Z,19.5
2022-09-10T05:34:02.962Z,19.3
2022-09-10T05:39:05.042Z,18.9
2022-09-10T05:44:06.993Z,18.7
2022-09-10T05:49:09.022Z,18.2
2022-09-10T05:54:10.922Z,18.2
2022-09-10T05:59:13.440Z,19
2022-09-10T06:04:15.547Z,18.9
2022-09-10T06:09:17.674Z,19.2
2022-09-10T06:14:19.918Z,19.2
2022-09-10T06:19:28.102Z,18.1
2022-09-10T06:24:30.293Z,18
2022-09-10T06:29:32.842Z,18.6
2022-09-10T06:34:37.554Z,18.5
2022-09-10T06:39:40.230Z,18.4
2022-09-10T06:44:42.278Z,18.1
2022-09-10T06:49:44.383Z,18.3
2022-09-10T06:54:46.280Z,18.5
2022-09-10T06:59:48.389Z,18.5
2022-09-10T07:04:50.367Z,18.4
2022-09-10T07:09:52.545Z,18.4
2022-09-10T07:14:54.810Z,18.1
2022-09-10T07:19:57.048Z,18.5
2022-09-10T07:24:59.005Z,19.1
2022-09-10T07:30:01.441Z,19.8
2022-09-10T07:35:03.406Z,19.8
2022-09-10T07:40:06.282Z,19.5
2022-09-10T07:45:08.605Z,19.5
2022-09-10T07:50:10.675Z,19.4
2022-09-10T07:55:13.689Z,20.6
2022-09-10T08:00:15.689Z,20.6
2022-09-10T08:05:17.630Z,21.1
2022-09-10T08:10:20.520Z,21.6
2022-09-10T08:15:22.539Z,21.6
2022-09-10T08:20:24.679Z,22.2
2022-09-10T08:25:26.765Z,22.6
2022-09-10T08:30:28.724Z,22.5
2022-09-10T08:35:30.706Z,21.4
2022-09-10T08:40:33.459Z,21.1
2022-09-10T08:45:35.816Z,21.4
2022-09-10T08:50:38.119Z,21.4
2022-09-10T08:55:40.025Z,21.4
2022-09-10T09:00:42.037Z,21.8
2022-09-10T09:05:44.062Z,22.4
2022-09-10T09:10:46.870Z,23.3
2022-09-10T09:15:49.131Z,23.2
2022-09-10T09:20:51.271Z,25.2
2022-09-10T09:25:53.153Z,26.5
2022-09-10T09:30:55.177Z,28.1
2022-09-10T09:35:57.302Z,28.8
2022-09-10T09:40:59.982Z,33
2022-09-10T09:46:02.272Z,32.7
2022-09-10T09:51:04.383Z,29.9
2022-09-10T09:56:06.514Z,27.8
2022-09-10T10:01:09.023Z,27.5
2022-09-10T10:06:11.116Z,27.4
2022-09-10T10:11:13.216Z,28.4
2022-09-10T10:16:15.429Z,31
2022-09-10T10:21:17.460Z,32.3
2022-09-10T10:26:19.435Z,32
2022-09-10T10:31:21.676Z,33.3
2022-09-10T10:36:23.765Z,34.2
2022-09-10T10:41:25.778Z,34.3
2022-09-10T10:46:27.846Z,33.1
2022-09-10T10:56:30.837Z,33
2022-09-10T11:01:33.430Z,33.6
2022-09-10T11:06:35.526Z,33.5
2022-09-10T11:11:38.463Z,32.1
2022-09-10T11:16:42.563Z,33.7
2022-09-10T11:21:53.486Z,35.4
2022-09-10T11:26:50.914Z,35.9
2022-09-10T11:32:43.006Z,36
2022-09-10T11:36:59.788Z,34.3
2022-09-10T11:42:01.923Z,34.3
2022-09-10T11:47:03.918Z,33.8
2022-09-10T11:52:06.044Z,34.4
2022-09-10T11:57:08.039Z,34.2
2022-09-10T12:02:10.124Z,34.4
2022-09-10T12:07:12.243Z,33.7
2022-09-10T12:12:14.238Z,34.5
2022-09-10T12:17:16.216Z,34.3
2022-09-10T12:22:18.182Z,33.7
2022-09-10T12:27:20.176Z,32.9
2022-09-10T12:32:22.329Z,32.5
2022-09-10T12:37:24.310Z,32.5
2022-09-10T12:42:26.396Z,31.1
2022-09-10T12:47:28.361Z,31.1
2022-09-10T12:52:30.368Z,30.7
2022-09-10T12:57:32.405Z,30.7
2022-09-10T13:02:34.865Z,28.7
2022-09-10T13:07:37.224Z,28.6
2022-09-10T13:12:39.465Z,28.9
2022-09-10T13:17:41.768Z,28.1
2022-09-10T13:22:45.084Z,27.8
2022-09-10T13:28:14.641Z,28
2022-09-10T13:37:56.342Z,27.3
2022-09-10T13:42:58.613Z,27.1
2022-09-10T13:48:00.695Z,27.1
2022-09-10T13:53:02.911Z,27
2022-09-10T13:58:05.026Z,27.1
2022-09-10T14:03:07.219Z,26.8
2022-09-10T14:08:09.459Z,25.6
2022-09-10T14:13:11.810Z,25.2
2022-09-10T14:18:13.922Z,25.4
2022-09-10T14:23:16.512Z,25.6
2022-09-10T14:28:18.821Z,25.5
2022-09-10T14:33:21.273Z,25.7
2022-09-10T14:38:24.958Z,25.7
2022-09-10T14:43:26.997Z,25.6
2022-09-10T14:48:28.969Z,25.4
2022-09-10T14:53:31.087Z,25.5
2022-09-10T14:58:33.615Z,25.4
2022-09-10T15:03:35.759Z,25.1
2022-09-10T15:08:37.820Z,25.2
2022-09-10T15:13:40.416Z,25
2022-09-10T15:18:42.615Z,24.9
2022-09-10T15:23:45.023Z,24.7
2022-09-10T15:28:47.003Z,24.6
2022-09-10T15:33:49.156Z,24.6
2022-09-10T15:38:51.625Z,24.3
2022-09-10T15:43:54.679Z,24.3
2022-09-10T15:48:58.018Z,24.3
2022-09-10T15:54:06.486Z,24.1
2022-09-10T15:59:08.363Z,24
2022-09-10T16:04:10.553Z,24.1
2022-09-10T16:09:13.922Z,23.7
2022-09-10T16:14:16.133Z,23.7
2022-09-10T16:19:21.459Z,23.5
2022-09-10T16:24:24.319Z,23.1
2022-09-10T16:29:26.666Z,23.1
2022-09-10T16:34:28.652Z,22.9
2022-09-10T16:39:30.762Z,22.8
2022-09-10T16:44:32.900Z,22.6
2022-09-10T16:49:37.785Z,22.4
2022-09-10T16:54:41.267Z,21.9
2022-09-10T16:59:44.203Z,21.7
2022-09-10T17:04:48.008Z,21.6
2022-09-10T17:09:50.530Z,21.4
2022-09-10T17:14:52.576Z,21.4
2022-09-10T17:19:54.528Z,21.2
2022-09-10T17:24:56.965Z,20.8
2022-09-10T17:29:58.996Z,20.7
2022-09-10T17:35:01.050Z,20.6
2022-09-10T17:40:03.546Z,20.4
2022-09-10T17:45:08.872Z,20.3
2022-09-10T17:50:11.102Z,20.2
2022-09-10T17:55:13.084Z,20.2
2022-09-10T18:00:15.178Z,20.1
2022-09-10T18:05:17.226Z,20
2022-09-10T18:10:19.289Z,19.9
2022-09-10T18:15:21.329Z,19.8
2022-09-10T18:20:23.313Z,19.8
2022-09-10T18:25:25.764Z,19.9
2022-09-10T18:30:27.802Z,19.8
2022-09-10T18:35:29.819Z,19.9
2022-09-10T18:40:32.042Z,19.8
2022-09-10T18:45:34.194Z,19.7
2022-09-10T18:50:36.117Z,19.6
2022-09-10T18:55:38.474Z,19.3
2022-09-10T19:00:40.450Z,19.3
2022-09-10T19:05:42.360Z,19.2
2022-09-10T19:10:44.426Z,19.1
2022-09-10T19:15:46.590Z,18.9
2022-09-10T19:20:48.617Z,18.9
2022-09-10T19:25:50.562Z,18.9
2022-09-10T19:30:52.783Z,18.7
2022-09-10T19:35:58.328Z,18.5
2022-09-10T19:41:00.289Z,18.5
2022-09-10T19:46:02.513Z,18.4
2022-09-10T19:51:04.722Z,18.3
2022-09-10T19:56:06.793Z,18.3
2022-09-10T20:01:08.826Z,18.2
2022-09-10T20:06:10.975Z,18.2
2022-09-10T20:11:13.400Z,18
2022-09-10T20:16:15.582Z,18
2022-09-10T20:21:17.946Z,17.9
2022-09-10T20:26:20.339Z,17.8
2022-09-10T20:31:23.345Z,17.7
2022-09-10T20:36:25.648Z,17.6
2022-09-10T20:41:27.918Z,17.6
2022-09-10T20:46:30.181Z,17.5
2022-09-10T20:51:32.347Z,17.4
2022-09-10T20:56:34.601Z,17.3
2022-09-10T21:01:37.095Z,17.1
2022-09-10T21:06:39.212Z,17.1
2022-09-10T21:11:41.673Z,17
2022-09-10T21:16:44.840Z,16.9
2022-09-10T21:21:46.843Z,16.9
2022-09-10T21:26:49.234Z,16.6
2022-09-10T21:31:51.721Z,16.5
2022-09-10T21:36:53.702Z,16.4
2022-09-10T21:41:55.690Z,16.4
2022-09-10T21:46:57.703Z,16.3
2022-09-10T21:51:59.783Z,16.3
2022-09-10T21:57:01.751Z,16.3
2022-09-10T22:02:04.306Z,16.4
2022-09-10T22:07:06.618Z,16.3
2022-09-10T22:12:08.597Z,16.4
2022-09-10T22:17:11.050Z,16.4
2022-09-10T22:22:13.817Z,16.4
2022-09-10T22:27:15.858Z,16.4
2022-09-10T22:32:17.804Z,16.4
2022-09-10T22:37:19.724Z,16.4
2022-09-10T22:42:22.236Z,16.5
2022-09-10T22:47:24.526Z,16.4
2022-09-10T22:52:26.971Z,16.4
2022-09-10T22:57:28.990Z,16.3
2022-09-10T23:02:30.984Z,16.4
2022-09-10T23:07:33.002Z,16.5
2022-09-10T23:12:35.203Z,16.5
2022-09-10T23:17:37.170Z,16.5
2022-09-10T23:22:39.272Z,16.4
2022-09-10T23:27:41.249Z,16.4
2022-09-10T23:32:43.295Z,16.3
2022-09-10T23:37:45.223Z,16.2
2022-09-10T23:42:47.721Z,16.1
2022-09-10T23:47:49.930Z,16
2022-09-10T23:52:51.943Z,16
2022-09-10T23:57:54.087Z,15.8
